Time;durP1;ratioP1;P1;durP2;ratioP2;P2;SDS_P1;SDS_P2;PMS_P1;PMS_P2;Temp;Humidity;BMP_temperature;BMP_pressure;BME280_temperature;BME280_humidity;BME280_pressure;Samples;Min_cycle;Max_cycle;Signal;HPM_P1;HPM_P2
2022/09/10 00:01:25;;;;;;;10.77;7.93;;;;;;;;;;5111298;28;20024;-76
2022/09/10 00:03:53;;;;;;;12.52;8.80;;;;;;;;;;5111223;28;20024;-77
2022/09/10 00:08:15;;;;;;;10.13;8.27;;;;;;;;;;5111585;27;20392;-76
2022/09/10 00:10:42;;;;;;;11.20;8.45;;;;;;;;;;5111454;28;20059;-76
2022/09/10 00:13:09;;;;;;;9.65;7.40;;;;;;;;;;5110911;28;20024;-76
2022/09/10 00:15:39;;;;;;;9.32;7.28;;;;;;;;;;5111259;28;20047;-76
2022/09/10 00:18:05;;;;;;;12.70;7.75;;;;;;;;;;5111102;28;20048;-76
2022/09/10 00:20:32;;;;;;;12.48;9.20;;;;;;;;;;5110946;28;20020;-76
2022/09/10 00:26:09;;;;;;;9.50;6.95;;;;;;;;;;5111404;27;20380;-76
2022/09/10 00:30:21;;;;;;;10.77;8.23;;;;;;;;;;5112113;27;20388;-76
2022/09/10 00:32:51;;;;;;;11.13;7.90;;;;;;;;;;5111288;28;20058;-76
2022/09/10 00:35:18;;;;;;;9.80;7.45;;;;;;;;;;5111029;28;20107;-76
2022/09/10 00:40:28;;;;;;;11.48;8.10;;;;;;;;;;5111898;27;21116;-77
2022/09/10 00:45:18;;;;;;;11.65;9.50;;;;;;;;;;5111870;27;20644;-76
2022/09/10 00:48:21;;;;;;;11.05;8.27;;;;;;;;;;5111204;27;20401;-76
2022/09/10 00:50:56;;;;;;;11.85;8.98;;;;;;;;;;5111344;27;20389;-76
2022/09/10 00:53:24;;;;;;;12.60;8.23;;;;;;;;;;5111446;28;20020;-76
2022/09/10 00:57:18;;;;;;;11.93;7.63;;;;;;;;;;5111754;27;20404;-76
2022/09/10 01:01:09;;;;;;;10.50;7.60;;;;;;;;;;5111985;27;20422;-76
2022/09/10 01:03:35;;;;;;;12.88;7.88;;;;;;;;;;5110993;28;20032;-77
2022/09/10 01:06:02;;;;;;;11.95;8.68;;;;;;;;;;5111248;28;20469;-77
2022/09/10 01:10:25;;;;;;;9.57;7.20;;;;;;;;;;5111202;27;20621;-76
2022/09/10 01:13:00;;;;;;;9.20;7.07;;;;;;;;;;5111927;28;20028;-76
2022/09/10 01:15:58;;;;;;;11.88;7.72;;;;;;;;;;5112233;27;20385;-76
2022/09/10 01:18:43;;;;;;;10.90;7.15;;;;;;;;;;5111345;28;20032;-76
2022/09/10 01:21:22;;;;;;;10.40;7.65;;;;;;;;;;5111243;28;20053;-76
2022/09/10 01:24:06;;;;;;;10.07;7.30;;;;;;;;;;5110729;28;20137;-76
2022/09/10 01:26:33;;;;;;;11.43;9.02;;;;;;;;;;5111286;28;20058;-76
2022/09/10 01:29:04;;;;;;;11.50;8.32;;;;;;;;;;5111222;28;20016;-76
2022/09/10 01:33:03;;;;;;;11.55;7.18;;;;;;;;;;5111414;27;20434;-76
2022/09/10 01:35:36;;;;;;;9.15;7.10;;;;;;;;;;5111419;28;20027;-76
2022/09/10 01:38:50;;;;;;;9.18;6.53;;;;;;;;;;5111055;27;20404;-77
2022/09/10 01:41:17;;;;;;;11.45;7.55;;;;;;;;;;5111355;28;20380;-77
2022/09/10 01:43:43;;;;;;;11.45;6.97;;;;;;;;;;5111210;28;20032;-76
2022/09/10 01:46:18;;;;;;;9.75;6.47;;;;;;;;;;5110774;28;20464;-76
2022/09/10 01:49:06;;;;;;;10.60;6.93;;;;;;;;;;5111207;28;20361;-76
2022/09/10 01:54:13;;;;;;;11.50;8.15;;;;;;;;;;5111333;27;20393;-76
2022/09/10 02:00:10;;;;;;;10.68;7.85;;;;;;;;;;5110942;27;20388;-77
2022/09/10 02:02:40;;;;;;;11.15;8.05;;;;;;;;;;5111387;28;20024;-77
2022/09/10 02:05:07;;;;;;;9.20;7.30;;;;;;;;;;5110981;28;20030;-77
2022/09/10 02:07:34;;;;;;;11.05;7.63;;;;;;;;;;5111441;28;20028;-76
2022/09/10 02:10:02;;;;;;;9.63;7.20;;;;;;;;;;5111684;28;20353;-77
2022/09/10 02:12:28;;;;;;;10.85;8.00;;;;;;;;;;5110969;28;20053;-76
2022/09/10 02:14:56;;;;;;;11.25;7.82;;;;;;;;;;5111012;28;20476;-76
2022/09/10 02:17:25;;;;;;;9.10;7.45;;;;;;;;;;5110998;28;20472;-76
2022/09/10 02:21:28;;;;;;;9.57;6.68;;;;;;;;;;5111823;27;20396;-76
2022/09/10 02:23:56;;;;;;;9.63;6.85;;;;;;;;;;5111306;28;20027;-76
2022/09/10 02:26:22;;;;;;;10.95;7.22;;;;;;;;;;5110821;28;20107;-76
2022/09/10 02:28:48;;;;;;;9.93;6.85;;;;;;;;;;5111237;28;20028;-76
2022/09/10 02:31:15;;;;;;;12.15;7.25;;;;;;;;;;5111191;28;20020;-76
2022/09/10 02:35:14;;;;;;;9.32;7.30;;;;;;;;;;5111122;27;20393;-76
2022/09/10 02:37:42;;;;;;;11.05;6.78;;;;;;;;;;5111571;28;20542;-76
2022/09/10 02:41:54;;;;;;;9.85;6.15;;;;;;;;;;5111133;27;20588;-77
2022/09/10 02:46:30;;;;;;;13.15;8.05;;;;;;;;;;5112041;27;20414;-76
2022/09/10 02:48:57;;;;;;;13.35;8.43;;;;;;;;;;5110954;28;20016;-76
2022/09/10 02:53:49;;;;;;;13.23;9.30;;;;;;;;;;5111571;27;20422;-76
2022/09/10 02:57:51;;;;;;;13.05;8.38;;;;;;;;;;5112133;27;21094;-76
2022/09/10 03:00:19;;;;;;;10.93;8.15;;;;;;;;;;5111286;28;20032;-76
2022/09/10 03:02:51;;;;;;;13.25;8.88;;;;;;;;;;5111091;27;20912;-76
2022/09/10 03:05:17;;;;;;;12.95;9.60;;;;;;;;;;5111593;28;20024;-77
2022/09/10 03:07:44;;;;;;;11.63;9.23;;;;;;;;;;5111249;28;20583;-76
2022/09/10 03:10:10;;;;;;;14.75;8.70;;;;;;;;;;5110882;28;20034;-76
2022/09/10 03:12:36;;;;;;;10.13;7.68;;;;;;;;;;5111351;28;20016;-77
2022/09/10 03:15:03;;;;;;;9.55;7.65;;;;;;;;;;5111377;28;20396;-77
2022/09/10 03:18:04;;;;;;;11.55;7.40;;;;;;;;;;5111605;27;20418;-77
2022/09/10 03:20:30;;;;;;;9.80;6.65;;;;;;;;;;5111393;28;20056;-76
2022/09/10 03:24:42;;;;;;;10.13;6.95;;;;;;;;;;5111612;27;21085;-76
2022/09/10 03:27:08;;;;;;;11.18;6.72;;;;;;;;;;5111490;28;20085;-76
2022/09/10 03:29:35;;;;;;;10.48;7.25;;;;;;;;;;5110863;28;20035;-76
2022/09/10 03:32:01;;;;;;;8.52;6.53;;;;;;;;;;5111331;28;20407;-76
2022/09/10 03:34:28;;;;;;;11.25;8.13;;;;;;;;;;5111212;28;20016;-76
2022/09/10 03:37:03;;;;;;;11.50;7.72;;;;;;;;;;5111471;27;20426;-76
2022/09/10 03:39:29;;;;;;;9.27;6.70;;;;;;;;;;5111382;28;20169;-76
2022/09/10 03:41:55;;;;;;;9.60;6.78;;;;;;;;;;5111266;28;20027;-77
2022/09/10 03:44:47;;;;;;;8.20;6.75;;;;;;;;;;5111330;27;20373;-77
2022/09/10 03:47:13;;;;;;;9.40;6.13;;;;;;;;;;5127143;28;20103;-77
2022/09/10 03:49:39;;;;;;;8.85;6.50;;;;;;;;;;5127156;28;20028;-77
2022/09/10 03:52:49;;;;;;;9.18;6.75;;;;;;;;;;5111366;27;20389;-77
2022/09/10 03:57:22;;;;;;;8.73;6.63;;;;;;;;;;5111417;27;20405;-77
2022/09/10 03:59:48;;;;;;;9.75;6.45;;;;;;;;;;5110986;28;20026;-77
2022/09/10 04:02:32;;;;;;;8.48;5.75;;;;;;;;;;5111877;27;20544;-77
2022/09/10 04:11:08;;;;;;;9.80;7.25;;;;;;;;;;5111630;27;20587;-77
2022/09/10 04:17:50;;;;;;;10.02;7.63;;;;;;;;;;5111715;27;20404;-78
2022/09/10 04:21:43;;;;;;;9.32;6.78;;;;;;;;;;5111945;27;20827;-77
2022/09/10 04:25:15;;;;;;;9.75;7.00;;;;;;;;;;5111963;27;20426;-77
2022/09/10 04:29:20;;;;;;;9.65;7.45;;;;;;;;;;5111854;27;20388;-76
2022/09/10 04:31:46;;;;;;;12.68;8.80;;;;;;;;;;5111808;28;20107;-77
2022/09/10 04:35:54;;;;;;;9.60;7.78;;;;;;;;;;5111664;27;21093;-77
2022/09/10 04:38:20;;;;;;;13.25;7.97;;;;;;;;;;5111516;28;20106;-77
2022/09/10 04:40:46;;;;;;;17.30;8.85;;;;;;;;;;5111061;28;20031;-77
2022/09/10 04:43:12;;;;;;;13.30;8.93;;;;;;;;;;5111235;28;20028;-77
2022/09/10 04:45:40;;;;;;;18.75;10.68;;;;;;;;;;5111212;28;20480;-77
2022/09/10 04:50:16;;;;;;;18.10;10.57;;;;;;;;;;5111875;27;20569;-77
2022/09/10 04:52:42;;;;;;;16.35;10.13;;;;;;;;;;5111405;28;20052;-77
2022/09/10 04:56:18;;;;;;;22.35;17.20;;;;;;;;;;5111504;27;20556;-77
2022/09/10 04:59:17;;;;;;;16.33;10.63;;;;;;;;;;5111931;27;20389;-77
2022/09/10 05:01:43;;;;;;;13.85;9.85;;;;;;;;;;5111068;28;20107;-77
2022/09/10 05:05:36;;;;;;;13.93;8.77;;;;;;;;;;5111770;27;20570;-77
2022/09/10 05:09:20;;;;;;;11.48;8.27;;;;;;;;;;5111137;27;20408;-76
2022/09/10 05:11:46;;;;;;;12.43;9.00;;;;;;;;;;5111330;28;20054;-77
2022/09/10 05:14:38;;;;;;;13.38;9.00;;;;;;;;;;5111861;27;20389;-76
2022/09/10 05:18:10;;;;;;;14.82;11.18;;;;;;;;;;5111339;27;20568;-77
2022/09/10 05:20:36;;;;;;;14.25;9.43;;;;;;;;;;5090895;28;20365;-77
2022/09/10 05:23:03;;;;;;;13.80;10.30;;;;;;;;;;5090460;28;20048;-76
2022/09/10 05:25:47;;;;;;;18.65;14.05;;;;;;;;;;5112121;27;21013;-76
2022/09/10 05:28:15;;;;;;;17.40;12.63;;;;;;;;;;5111571;28;20089;-76
2022/09/10 05:30:41;;;;;;;18.20;14.40;;;;;;;;;;5110930;28;20020;-77
2022/09/10 05:34:26;;;;;;;18.15;15.05;;;;;;;;;;5112104;27;20393;-76
2022/09/10 05:37:35;;;;;;;17.75;14.57;;;;;;;;;;5111221;27;20843;-77
2022/09/10 05:40:03;;;;;;;18.70;12.77;;;;;;;;;;5111312;28;20022;-77
2022/09/10 05:42:29;;;;;;;14.20;11.63;;;;;;;;;;5111320;28;20043;-77
2022/09/10 05:44:56;;;;;;;13.70;11.20;;;;;;;;;;5110742;28;20019;-76
2022/09/10 05:47:22;;;;;;;12.75;10.25;;;;;;;;;;5111529;28;20101;-76
2022/09/10 05:49:48;;;;;;;13.13;9.80;;;;;;;;;;5111128;28;20457;-76
2022/09/10 05:52:15;;;;;;;10.98;8.75;;;;;;;;;;5110710;28;20173;-76
2022/09/10 05:54:41;;;;;;;10.75;8.38;;;;;;;;;;5111023;28;20020;-76
2022/09/10 05:59:15;;;;;;;9.63;7.53;;;;;;;;;;5110944;27;20819;-77
2022/09/10 06:03:33;;;;;;;11.10;7.80;;;;;;;;;;5070780;28;20391;-77
2022/09/10 06:06:52;;;;;;;12.45;8.93;;;;;;;;;;5173384;27;20117;-77
2022/09/10 06:09:18;;;;;;;12.10;8.32;;;;;;;;;;5152469;27;20424;-76
2022/09/10 06:11:48;;;;;;;15.88;10.50;;;;;;;;;;5152106;27;20057;-76
2022/09/10 06:14:14;;;;;;;12.18;9.52;;;;;;;;;;5152565;27;20019;-78
2022/09/10 06:18:12;;;;;;;12.07;8.52;;;;;;;;;;5111209;27;20569;-77
2022/09/10 06:22:42;;;;;;;10.60;8.32;;;;;;;;;;5071587;28;20591;-77
2022/09/10 06:25:08;;;;;;;12.18;7.10;;;;;;;;;;5070772;28;20032;-77
2022/09/10 06:31:40;;;;;;;9.95;6.85;;;;;;;;;;5111902;27;20794;-78
2022/09/10 06:36:32;;;;;;;7.82;5.53;;;;;;;;;;5111485;27;20908;-78
2022/09/10 06:39:00;;;;;;;9.93;6.22;;;;;;;;;;5110018;28;20038;-78
2022/09/10 06:41:29;;;;;;;11.50;6.38;;;;;;;;;;5110940;28;20047;-78
2022/09/10 06:43:55;;;;;;;8.75;5.57;;;;;;;;;;5111479;28;20016;-77
2022/09/10 06:46:21;;;;;;;8.18;5.60;;;;;;;;;;5110837;28;20027;-77
2022/09/10 06:48:48;;;;;;;6.35;4.47;;;;;;;;;;5109801;28;20103;-78
2022/09/10 06:53:51;;;;;;;7.78;4.38;;;;;;;;;;5111356;27;20573;-77
2022/09/10 06:56:17;;;;;;;7.47;4.68;;;;;;;;;;5111342;28;20033;-77
2022/09/10 06:58:44;;;;;;;6.32;3.97;;;;;;;;;;5111559;28;20024;-78
2022/09/10 07:03:38;;;;;;;8.93;5.68;;;;;;;;;;5112096;27;20794;-77
2022/09/10 07:06:06;;;;;;;7.80;4.60;;;;;;;;;;5111458;28;20050;-80
2022/09/10 07:08:32;;;;;;;8.85;4.63;;;;;;;;;;5110872;28;20024;-78
2022/09/10 07:11:03;;;;;;;6.32;4.05;;;;;;;;;;5109946;28;20034;-78
2022/09/10 07:13:39;;;;;;;12.65;4.25;;;;;;;;;;5112134;27;20560;-78
2022/09/10 07:16:26;;;;;;;6.40;4.03;;;;;;;;;;5111053;27;20906;-78
2022/09/10 07:18:53;;;;;;;5.80;3.67;;;;;;;;;;5111124;28;20387;-76
2022/09/10 07:24:50;;;;;;;7.82;4.15;;;;;;;;;;5111481;27;20393;-78
2022/09/10 07:31:29;;;;;;;6.90;4.63;;;;;;;;;;5112124;27;20415;-77
2022/09/10 07:33:59;;;;;;;7.63;3.58;;;;;;;;;;5109959;28;20110;-79
2022/09/10 07:36:25;;;;;;;6.20;3.78;;;;;;;;;;5110987;28;20482;-79
2022/09/10 07:38:53;;;;;;;8.05;4.15;;;;;;;;;;5109927;28;20028;-79
2022/09/10 07:41:19;;;;;;;5.50;3.67;;;;;;;;;;5111163;28;20024;-80
2022/09/10 07:45:14;;;;;;;8.95;4.65;;;;;;;;;;5111569;27;20729;-78
2022/09/10 07:47:42;;;;;;;7.88;4.20;;;;;;;;;;5111553;28;20047;-76
2022/09/10 07:50:08;;;;;;;5.75;3.60;;;;;;;;;;5111176;28;20483;-79
2022/09/10 07:52:35;;;;;;;5.28;3.58;;;;;;;;;;5111807;28;20024;-79
2022/09/10 07:55:01;;;;;;;7.10;4.00;;;;;;;;;;5111139;28;20039;-78
2022/09/10 07:57:28;;;;;;;6.28;3.55;;;;;;;;;;5110777;28;20020;-79
2022/09/10 07:59:54;;;;;;;8.07;3.40;;;;;;;;;;5111275;28;20020;-77
2022/09/10 08:02:21;;;;;;;6.95;3.55;;;;;;;;;;5111065;28;20028;-79
2022/09/10 08:04:47;;;;;;;6.53;3.70;;;;;;;;;;5110707;28;20514;-79
2022/09/10 08:07:16;;;;;;;7.15;4.35;;;;;;;;;;5111002;28;20069;-79
2022/09/10 08:10:12;;;;;;;7.85;4.18;;;;;;;;;;5111400;27;20426;-80
2022/09/10 08:13:50;;;;;;;7.40;3.60;;;;;;;;;;5112124;27;20531;-78
2022/09/10 08:16:18;;;;;;;8.98;4.65;;;;;;;;;;5111380;28;20026;-79
2022/09/10 08:18:45;;;;;;;7.78;4.20;;;;;;;;;;5110872;28;20020;-81
2022/09/10 08:23:19;;;;;;;5.47;3.15;;;;;;;;;;5111477;27;20565;-79
2022/09/10 08:27:28;;;;;;;6.95;4.22;;;;;;;;;;5071123;28;21028;-77
2022/09/10 08:29:55;;;;;;;6.43;3.50;;;;;;;;;;5070772;28;20028;-78
2022/09/10 08:32:22;;;;;;;8.43;4.28;;;;;;;;;;5070777;28;20024;-78
2022/09/10 08:35:21;;;;;;;10.18;5.03;;;;;;;;;;5112077;27;20557;-78
2022/09/10 08:37:47;;;;;;;7.43;3.65;;;;;;;;;;5111315;28;20024;-80
2022/09/10 08:40:13;;;;;;;5.70;3.67;;;;;;;;;;5110909;28;20020;-80
2022/09/10 08:42:42;;;;;;;5.80;3.92;;;;;;;;;;5111264;28;20052;-78
2022/09/10 08:45:22;;;;;;;6.45;3.38;;;;;;;;;;5111463;28;20391;-80
2022/09/10 08:48:54;;;;;;;6.50;3.58;;;;;;;;;;5070890;28;20575;-78
2022/09/10 08:51:26;;;;;;;8.07;3.65;;;;;;;;;;5071119;28;20083;-78
2022/09/10 08:54:18;;;;;;;6.82;4.00;;;;;;;;;;5070733;28;20029;-78
2022/09/10 08:56:45;;;;;;;9.98;5.78;;;;;;;;;;5049289;28;20500;-78
2022/09/10 08:59:20;;;;;;;8.00;3.88;;;;;;;;;;5070627;28;20021;-78
2022/09/10 09:01:49;;;;;;;7.90;4.22;;;;;;;;;;5070253;28;20079;-78
2022/09/10 09:04:17;;;;;;;8.65;3.92;;;;;;;;;;5070467;28;20436;-79
2022/09/10 09:07:03;;;;;;;6.38;3.47;;;;;;;;;;5070534;28;20060;-79
2022/09/10 09:09:29;;;;;;;4.93;3.50;;;;;;;;;;5070538;28;20362;-78
2022/09/10 09:12:14;;;;;;;10.35;4.65;;;;;;;;;;5070441;28;20389;-79
2022/09/10 09:14:49;;;;;;;5.97;3.45;;;;;;;;;;5051978;28;20029;-79
2022/09/10 09:17:38;;;;;;;10.20;3.63;;;;;;;;;;5070170;28;20495;-79
2022/09/10 09:20:14;;;;;;;5.15;3.17;;;;;;;;;;5070545;28;20021;-79
2022/09/10 09:22:40;;;;;;;8.38;3.90;;;;;;;;;;5069910;28;20021;-80
2022/09/10 09:25:06;;;;;;;8.88;3.38;;;;;;;;;;5070129;28;20021;-79
2022/09/10 09:27:34;;;;;;;5.32;3.40;;;;;;;;;;5069997;28;20035;-79
2022/09/10 09:30:05;;;;;;;5.90;3.08;;;;;;;;;;5069724;28;20057;-79
2022/09/10 09:32:34;;;;;;;5.55;2.75;;;;;;;;;;5070388;28;20373;-79
2022/09/10 09:35:06;;;;;;;4.93;3.13;;;;;;;;;;5070047;28;20362;-79
2022/09/10 09:37:33;;;;;;;;;;;;;;;;;;5070297;28;20464;-79
2022/09/10 09:40:05;;;;;;;9.32;4.22;;;;;;;;;;5069911;28;20438;-79
2022/09/10 09:42:37;;;;;;;7.50;3.83;;;;;;;;;;5069165;28;20104;-79
2022/09/10 09:45:18;;;;;;;7.28;3.00;;;;;;;;;;5069741;28;20056;-80
2022/09/10 09:47:45;;;;;;;8.10;3.72;;;;;;;;;;5069461;28;20045;-80
2022/09/10 09:50:12;;;;;;;7.82;3.00;;;;;;;;;;5069156;28;20020;-79
2022/09/10 09:52:40;;;;;;;8.52;3.00;;;;;;;;;;5069507;28;20036;-79
2022/09/10 09:55:12;;;;;;;8.50;3.40;;;;;;;;;;5069446;28;20028;-79
2022/09/10 09:57:41;;;;;;;6.85;3.63;;;;;;;;;;5069195;28;20388;-79
2022/09/10 10:00:30;;;;;;;4.90;2.83;;;;;;;;;;5056221;28;20021;-79
2022/09/10 10:03:03;;;;;;;5.55;3.25;;;;;;;;;;5045763;28;20063;-80
2022/09/10 10:05:29;;;;;;;8.40;3.10;;;;;;;;;;5038104;28;20427;-79
2022/09/10 10:07:55;;;;;;;8.60;3.03;;;;;;;;;;5056024;28;20121;-78
2022/09/10 10:10:23;;;;;;;8.32;3.38;;;;;;;;;;5055568;28;20025;-78
2022/09/10 10:12:51;;;;;;;5.78;3.08;;;;;;;;;;5056003;28;20497;-79
2022/09/10 10:15:35;;;;;;;6.55;3.08;;;;;;;;;;5056110;28;20483;-79
2022/09/10 10:18:21;;;;;;;7.05;3.33;;;;;;;;;;5055688;28;20033;-79
2022/09/10 10:21:10;;;;;;;7.93;2.70;;;;;;;;;;5055733;28;20063;-79
2022/09/10 10:23:38;;;;;;;7.50;3.35;;;;;;;;;;5055694;28;20420;-78
2022/09/10 10:26:16;;;;;;;6.97;3.00;;;;;;;;;;5055257;28;20028;-79
2022/09/10 10:28:59;;;;;;;6.25;3.05;;;;;;;;;;5055583;28;20385;-79
2022/09/10 10:31:52;;;;;;;8.77;3.00;;;;;;;;;;5055391;28;20028;-78
2022/09/10 10:34:27;;;;;;;6.72;2.65;;;;;;;;;;5052735;28;20048;-77
2022/09/10 10:37:14;;;;;;;8.15;2.85;;;;;;;;;;5037528;28;20462;-79
2022/09/10 10:39:48;;;;;;;6.65;2.42;;;;;;;;;;5055059;28;20056;-80
2022/09/10 10:42:33;;;;;;;6.15;2.53;;;;;;;;;;5055436;28;20021;-77
2022/09/10 10:44:59;;;;;;;5.22;2.70;;;;;;;;;;5055260;28;20055;-77
2022/09/10 10:47:51;;;;;;;6.18;3.25;;;;;;;;;;5054654;28;20120;-77
2022/09/10 10:50:36;;;;;;;6.20;3.28;;;;;;;;;;5024892;28;20044;-77
2022/09/10 10:53:05;;;;;;;4.90;2.63;;;;;;;;;;5054972;28;20381;-77
2022/09/10 10:55:37;;;;;;;6.10;2.80;;;;;;;;;;5055044;28;20029;-76
2022/09/10 10:58:04;;;;;;;;;;;;;;;;;;5055501;28;20021;-77
2022/09/10 11:00:36;;;;;;;7.25;2.67;;;;;;;;;;5054639;28;19911;-77
2022/09/10 11:03:02;;;;;;;6.38;3.13;;;;;;;;;;5054963;28;20481;-77
2022/09/10 11:05:33;;;;;;;6.00;2.95;;;;;;;;;;5055176;28;20060;-77
2022/09/10 11:08:01;;;;;;;10.70;2.70;;;;;;;;;;5054595;28;20060;-77
2022/09/10 11:10:30;;;;;;;6.15;2.20;;;;;;;;;;5053952;28;20533;-77
2022/09/10 11:13:02;;;;;;;5.32;2.45;;;;;;;;;;5054778;28;20033;-76
2022/09/10 11:15:34;;;;;;;6.50;2.40;;;;;;;;;;5054443;28;20032;-77
2022/09/10 11:18:19;;;;;;;5.65;2.50;;;;;;;;;;5054693;28;20033;-76
2022/09/10 11:20:54;;;;;;;4.55;2.30;;;;;;;;;;5054408;28;20025;-79
2022/09/10 11:23:21;;;;;;;5.13;2.35;;;;;;;;;;5054606;28;20025;-76
2022/09/10 11:25:53;;;;;;;6.10;2.47;;;;;;;;;;5054570;28;20020;-77
2022/09/10 11:28:31;;;;;;;6.22;3.10;;;;;;;;;;5054487;28;20091;-77
2022/09/10 11:31:08;;;;;;;6.78;3.05;;;;;;;;;;5054465;28;20021;-77
2022/09/10 11:33:45;;;;;;;7.88;2.50;;;;;;;;;;5054766;28;20126;-78
2022/09/10 11:36:27;;;;;;;5.88;2.53;;;;;;;;;;5053998;28;20029;-78
2022/09/10 11:38:53;;;;;;;;;;;;;;;;;;5055265;28;20027;-79
2022/09/10 11:41:22;;;;;;;6.07;2.60;;;;;;;;;;5054358;28;19905;-78
2022/09/10 11:43:51;;;;;;;5.57;2.38;;;;;;;;;;5053891;28;20104;-79
2022/09/10 11:46:22;;;;;;;6.38;2.13;;;;;;;;;;5054213;28;20017;-77
2022/09/10 11:48:52;;;;;;;4.95;1.90;;;;;;;;;;5053724;28;20041;-78
2022/09/10 11:51:18;;;;;;;4.93;2.03;;;;;;;;;;5054489;28;20017;-77
2022/09/10 11:53:44;;;;;;;7.65;2.10;;;;;;;;;;5054015;28;20044;-78
2022/09/10 11:56:13;;;;;;;5.50;1.98;;;;;;;;;;5053874;28;20057;-77
2022/09/10 11:58:48;;;;;;;6.28;2.20;;;;;;;;;;5054081;28;20074;-77
2022/09/10 12:01:27;;;;;;;4.70;1.92;;;;;;;;;;5054009;28;20021;-78
2022/09/10 12:04:03;;;;;;;5.03;2.08;;;;;;;;;;5053587;28;20025;-79
2022/09/10 12:06:32;;;;;;;4.50;1.95;;;;;;;;;;5053818;28;20092;-77
2022/09/10 12:09:08;;;;;;;6.65;1.85;;;;;;;;;;5053845;28;20036;-78
2022/09/10 12:11:57;;;;;;;6.35;2.78;;;;;;;;;;5053533;28;20028;-77
2022/09/10 12:14:23;;;;;;;6.32;2.28;;;;;;;;;;5054094;28;20075;-78
2022/09/10 12:16:51;;;;;;;6.75;1.80;;;;;;;;;;5053456;28;20555;-78
2022/09/10 12:19:28;;;;;;;3.40;1.70;;;;;;;;;;5053617;28;20032;-78
2022/09/10 12:22:19;;;;;;;4.25;1.98;;;;;;;;;;5053336;28;20028;-78
2022/09/10 12:25:15;;;;;;;7.18;2.15;;;;;;;;;;5043315;28;20389;-78
2022/09/10 12:27:44;;;;;;;8.10;2.80;;;;;;;;;;5036567;28;20045;-78
2022/09/10 12:30:29;;;;;;;8.93;3.30;;;;;;;;;;5053716;28;20024;-77
2022/09/10 12:32:59;;;;;;;5.53;2.28;;;;;;;;;;5053275;28;20131;-77
2022/09/10 12:35:33;;;;;;;5.93;2.92;;;;;;;;;;5053902;28;20024;-77
2022/09/10 12:38:18;;;;;;;4.45;2.47;;;;;;;;;;5053008;28;20113;-78
2022/09/10 12:40:48;;;;;;;4.97;2.30;;;;;;;;;;5053499;28;20040;-79
2022/09/10 12:43:33;;;;;;;5.55;2.60;;;;;;;;;;5053581;28;20033;-79
2022/09/10 12:46:08;;;;;;;7.75;3.42;;;;;;;;;;5052871;28;20029;-78
2022/09/10 12:48:45;;;;;;;5.70;2.92;;;;;;;;;;5053075;28;20489;-78
2022/09/10 12:51:17;;;;;;;4.25;2.55;;;;;;;;;;5035449;28;20025;-78
2022/09/10 12:54:02;;;;;;;5.93;2.63;;;;;;;;;;5052934;28;20052;-78
2022/09/10 12:56:39;;;;;;;7.88;3.70;;;;;;;;;;5053155;28;20103;-78
2022/09/10 12:59:05;;;;;;;6.82;2.55;;;;;;;;;;5052840;28;20478;-78
2022/09/10 13:01:42;;;;;;;4.88;2.45;;;;;;;;;;5053253;28;20029;-78
2022/09/10 13:04:18;;;;;;;6.43;2.92;;;;;;;;;;5053474;28;20021;-78
2022/09/10 13:06:48;;;;;;;6.60;3.00;;;;;;;;;;5052644;28;20035;-78
2022/09/10 13:09:19;;;;;;;6.10;2.47;;;;;;;;;;5053039;28;20025;-79
2022/09/10 13:11:48;;;;;;;4.60;2.45;;;;;;;;;;5053654;28;20108;-78
2022/09/10 13:14:21;;;;;;;4.60;2.22;;;;;;;;;;5052672;28;20036;-77
2022/09/10 13:16:47;;;;;;;5.28;2.40;;;;;;;;;;5053059;28;20070;-78
2022/09/10 13:19:15;;;;;;;4.28;2.17;;;;;;;;;;5052962;28;20021;-78
2022/09/10 13:21:44;;;;;;;8.77;2.88;;;;;;;;;;5052601;28;20025;-78
2022/09/10 13:24:42;;;;;;;7.28;3.00;;;;;;;;;;5052963;28;20056;-78
2022/09/10 13:27:17;;;;;;;9.50;3.67;;;;;;;;;;4991957;28;20128;-78
2022/09/10 13:29:49;;;;;;;8.55;3.22;;;;;;;;;;5052845;28;20029;-78
2022/09/10 13:32:34;;;;;;;6.80;2.90;;;;;;;;;;5035065;28;20041;-77
2022/09/10 13:35:21;;;;;;;5.45;2.50;;;;;;;;;;5055226;28;20032;-77
2022/09/10 13:38:05;;;;;;;6.50;2.67;;;;;;;;;;5056720;28;20031;-78
2022/09/10 13:40:50;;;;;;;8.00;3.13;;;;;;;;;;5056709;28;20025;-79
2022/09/10 13:43:23;;;;;;;5.90;2.22;;;;;;;;;;5056194;28;20103;-78
2022/09/10 13:45:52;;;;;;;6.45;2.83;;;;;;;;;;5056705;28;20029;-78
2022/09/10 13:48:23;;;;;;;7.32;3.03;;;;;;;;;;5055786;28;20512;-78
2022/09/10 13:50:56;;;;;;;8.43;3.72;;;;;;;;;;5056434;28;20032;-78
2022/09/10 13:53:24;;;;;;;7.10;3.20;;;;;;;;;;5056361;28;20021;-78
2022/09/10 13:55:58;;;;;;;8.30;2.90;;;;;;;;;;5055864;28;20088;-78
2022/09/10 13:58:27;;;;;;;6.78;2.70;;;;;;;;;;5056446;28;20382;-78
2022/09/10 14:00:55;;;;;;;5.43;2.40;;;;;;;;;;5056388;28;20057;-78
2022/09/10 14:03:22;;;;;;;5.35;2.40;;;;;;;;;;5055678;28;20090;-78
2022/09/10 14:05:53;;;;;;;3.85;1.58;;;;;;;;;;5038312;28;20032;-80
2022/09/10 14:08:21;;;;;;;3.30;1.53;;;;;;;;;;5056449;28;20033;-79
2022/09/10 14:10:50;;;;;;;5.50;2.05;;;;;;;;;;5055654;28;20093;-79
2022/09/10 14:13:23;;;;;;;5.90;2.40;;;;;;;;;;5056055;28;20100;-78
2022/09/10 14:15:50;;;;;;;4.35;1.90;;;;;;;;;;5055917;28;20075;-79
2022/09/10 14:18:16;;;;;;;6.80;2.40;;;;;;;;;;5055579;28;20108;-78
2022/09/10 14:20:43;;;;;;;4.90;2.10;;;;;;;;;;5056156;28;20025;-79
2022/09/10 14:23:15;;;;;;;5.53;2.00;;;;;;;;;;5055863;28;20025;-77
2022/09/10 14:25:43;;;;;;;5.18;2.58;;;;;;;;;;5055288;28;20021;-78
2022/09/10 14:28:16;;;;;;;5.80;2.78;;;;;;;;;;5037692;28;20044;-78
2022/09/10 14:30:43;;;;;;;6.78;2.63;;;;;;;;;;5055188;28;20474;-78
2022/09/10 14:33:21;;;;;;;8.43;3.17;;;;;;;;;;5037739;28;20017;-78
2022/09/10 14:35:50;;;;;;;6.25;2.50;;;;;;;;;;5055647;28;20152;-77
2022/09/10 14:38:21;;;;;;;6.57;3.15;;;;;;;;;;5055117;28;20013;-78
2022/09/10 14:40:48;;;;;;;4.63;2.25;;;;;;;;;;5055422;28;20036;-78
2022/09/10 14:43:46;;;;;;;5.82;2.60;;;;;;;;;;5055330;28;20021;-78
2022/09/10 14:46:33;;;;;;;6.30;3.38;;;;;;;;;;4994151;28;20096;-78
2022/09/10 14:49:00;;;;;;;9.52;3.53;;;;;;;;;;5014978;28;20049;-78
2022/09/10 14:51:26;;;;;;;9.85;2.90;;;;;;;;;;5037417;28;20039;-78
2022/09/10 14:53:54;;;;;;;5.38;2.88;;;;;;;;;;5054843;28;20021;-78
2022/09/10 14:56:30;;;;;;;9.38;4.53;;;;;;;;;;5037272;28;20397;-78
2022/09/10 14:58:58;;;;;;;8.13;3.83;;;;;;;;;;5036891;28;20362;-78
2022/09/10 15:01:24;;;;;;;10.32;4.72;;;;;;;;;;5054904;28;20028;-78
2022/09/10 15:03:50;;;;;;;8.05;3.00;;;;;;;;;;5055202;28;20020;-79
2022/09/10 15:06:17;;;;;;;7.78;3.05;;;;;;;;;;5054427;28;20025;-78
2022/09/10 15:08:44;;;;;;;4.80;2.33;;;;;;;;;;5054734;28;20035;-78
2022/09/10 15:11:14;;;;;;;6.90;2.20;;;;;;;;;;5054884;28;20409;-78
2022/09/10 15:13:41;;;;;;;6.75;2.80;;;;;;;;;;5036515;28;20071;-78
2022/09/10 15:16:08;;;;;;;7.40;3.60;;;;;;;;;;5055072;28;20029;-78
2022/09/10 15:18:34;;;;;;;10.15;4.90;;;;;;;;;;5054679;28;20086;-78
2022/09/10 15:21:02;;;;;;;6.65;3.13;;;;;;;;;;5036351;28;20036;-78
2022/09/10 15:23:28;;;;;;;4.95;2.30;;;;;;;;;;5054657;28;20040;-78
2022/09/10 15:25:56;;;;;;;5.55;1.88;;;;;;;;;;5054625;28;20481;-78
2022/09/10 15:28:22;;;;;;;5.00;1.95;;;;;;;;;;5054051;28;20122;-78
2022/09/10 15:30:50;;;;;;;6.90;2.05;;;;;;;;;;5054615;28;20131;-78
2022/09/10 15:33:16;;;;;;;7.20;2.83;;;;;;;;;;5054449;28;20025;-78
2022/09/10 15:35:42;;;;;;;7.30;3.47;;;;;;;;;;5054050;28;20155;-78
2022/09/10 15:38:15;;;;;;;3.90;2.10;;;;;;;;;;5054416;28;20021;-78
2022/09/10 15:40:41;;;;;;;6.22;2.15;;;;;;;;;;5054254;28;20087;-79
2022/09/10 15:43:07;;;;;;;6.28;2.00;;;;;;;;;;5053757;28;20013;-79
2022/09/10 15:45:34;;;;;;;6.63;1.67;;;;;;;;;;5054205;28;20096;-79
2022/09/10 15:48:01;;;;;;;5.85;2.75;;;;;;;;;;5053672;28;20048;-79
2022/09/10 15:50:27;;;;;;;7.25;3.53;;;;;;;;;;5054060;28;20025;-79
2022/09/10 15:52:53;;;;;;;7.20;3.58;;;;;;;;;;5054038;28;20025;-79
2022/09/10 15:55:19;;;;;;;5.75;2.42;;;;;;;;;;5053596;28;20036;-79
2022/09/10 15:57:48;;;;;;;5.30;2.10;;;;;;;;;;5053425;28;20017;-79
2022/09/10 16:00:16;;;;;;;4.72;1.88;;;;;;;;;;5053800;28;20096;-79
2022/09/10 16:02:46;;;;;;;4.82;2.10;;;;;;;;;;5053365;28;20078;-80
2022/09/10 16:05:15;;;;;;;5.63;2.15;;;;;;;;;;5053826;28;20032;-79
2022/09/10 16:07:46;;;;;;;4.68;2.40;;;;;;;;;;5053661;28;20123;-79
2022/09/10 16:10:13;;;;;;;7.38;3.70;;;;;;;;;;5035472;28;20100;-79
2022/09/10 16:12:39;;;;;;;7.63;3.60;;;;;;;;;;5053707;28;20080;-79
2022/09/10 16:15:05;;;;;;;8.32;3.95;;;;;;;;;;5035771;28;20029;-79
2022/09/10 16:17:31;;;;;;;8.52;3.85;;;;;;;;;;5053289;28;20033;-79
2022/09/10 16:19:58;;;;;;;8.23;4.55;;;;;;;;;;5053930;28;20481;-80
2022/09/10 16:22:25;;;;;;;8.35;3.33;;;;;;;;;;5053759;28;20017;-80
2022/09/10 16:24:51;;;;;;;6.28;2.58;;;;;;;;;;5053221;28;20033;-79
2022/09/10 16:27:17;;;;;;;6.80;2.30;;;;;;;;;;5053542;28;20099;-80
2022/09/10 16:29:45;;;;;;;7.57;2.63;;;;;;;;;;5053616;28;20477;-79
2022/09/10 16:32:11;;;;;;;10.38;3.35;;;;;;;;;;5035282;28;20431;-78
2022/09/10 16:34:38;;;;;;;9.02;3.72;;;;;;;;;;5053494;28;20025;-80
2022/09/10 16:37:04;;;;;;;7.70;4.25;;;;;;;;;;5053462;28;20025;-80
2022/09/10 16:39:30;;;;;;;7.85;4.00;;;;;;;;;;5053045;28;20401;-79
2022/09/10 16:41:56;;;;;;;7.00;3.35;;;;;;;;;;5035463;28;20024;-79
2022/09/10 16:44:23;;;;;;;6.53;2.30;;;;;;;;;;5052937;28;20466;-79